Terminal Aerodrome Forecast
Issued by NWS Jackson, MS

Home | Current Version | Previous Version | Text Only | Print | Product List | Glossary On
Versions: 1 2 3 4 5 6 7 8 9 10 11 12 13 14
723
FTUS44 KJAN 301746 RRA
TAFHBG
TAF
KHBG 301746Z 3018/3118 29006KT P6SM VCTS SCT030 BKN050CB
     FM310000 19004KT P6SM FEW060
     FM311000 VRB03KT 6SM BR FEW009
     FM311400 VRB04KT P6SM SCT020 BKN030=

USA.gov is the U.S. government's official web portal to all federal, state and local government web resources and services.